Terminal Aerodrome Forecast
Issued by NWS Sioux Falls, SD

Home | Current Version | Previous Version | Graphics & Text | Print | Product List | Glossary On
Versions: 1 2 3 4 5 6 7 8 9 10 11 12 13 14 15 16 17 18 19 20 21 22 23 24 25 26
256
FTUS43 KFSD 201739
TAFSUX
TAF
KSUX 201739Z 2018/2118 33012KT P6SM SKC
     FM202200 33006KT P6SM SKC
     FM210000 09004KT P6SM SKC
     FM211300 11007KT P6SM BKN015
     FM211600 14011KT P6SM BKN022=

USA.gov is the U.S. government's official web portal to all federal, state and local government web resources and services.